createdAt,value
2022-11-22T00:00:17.511Z,0.5
2022-11-22T00:01:11.342Z,0.600
2022-11-22T00:02:11.139Z,0.5
2022-11-22T00:03:11.275Z,0.400
2022-11-22T00:04:11.368Z,0.300
2022-11-22T00:05:11.295Z,0.5
2022-11-22T00:06:11.147Z,0.300
2022-11-22T00:07:10.831Z,0.5
2022-11-22T00:08:10.504Z,0.400
2022-11-22T00:09:11.535Z,0.300
2022-11-22T00:12:10.701Z,0.600
2022-11-22T00:14:11.394Z,0.400
2022-11-22T00:18:11.202Z,0.300
2022-11-22T00:19:10.771Z,0.400
2022-11-22T00:21:10.791Z,0.5
2022-11-22T00:22:10.783Z,0.200
2022-11-22T00:23:10.650Z,0.400
2022-11-22T00:24:11.472Z,0.300
2022-11-22T00:26:11.228Z,0.400
2022-11-22T00:28:10.910Z,0.200
2022-11-22T00:30:11.589Z,0.400
2022-11-22T00:31:11.435Z,0.300
2022-11-22T00:33:11.240Z,0.200
2022-11-22T00:34:10.999Z,0.100
2022-11-22T00:35:10.969Z,0.300
2022-11-22T00:36:10.868Z,0.200
2022-11-22T00:37:10.984Z,0.400
2022-11-22T00:38:10.989Z,0.200
2022-11-22T00:43:11.301Z,0.300
2022-11-22T00:44:11.193Z,0.200
2022-11-22T00:45:11.493Z,0.300
2022-11-22T00:47:10.716Z,0.100
2022-11-22T00:48:11.537Z,0.300
2022-11-22T00:51:10.819Z,0.200
2022-11-22T00:52:10.708Z,0.100
2022-11-22T00:54:10.485Z,0.200
2022-11-22T00:55:11.839Z,0.300
2022-11-22T00:56:10.745Z,0.400
2022-11-22T00:57:10.729Z,0.300
2022-11-22T00:58:10.562Z,0.200
2022-11-22T01:00:11.487Z,0.300
2022-11-22T01:05:11.525Z,0.200
2022-11-22T01:09:11.601Z,0.300
2022-11-22T01:13:11.575Z,0.200
2022-11-22T01:14:11.372Z,0.5
2022-11-22T01:15:11.443Z,0.300
2022-11-22T01:16:11.231Z,0.400
2022-11-22T01:18:11.443Z,0.5
2022-11-22T01:22:10.985Z,0.699
2022-11-22T01:23:10.875Z,0.400
2022-11-22T01:24:10.857Z,0.800
2022-11-22T01:26:10.844Z,1
2022-11-22T01:27:10.630Z,0.800
2022-11-22T01:28:10.749Z,0.899
2022-11-22T01:29:11.362Z,1
2022-11-22T01:30:11.571Z,0.800
2022-11-22T01:31:10.604Z,0.899
2022-11-22T01:33:11.500Z,1
2022-11-22T01:34:11.459Z,1.399
2022-11-22T01:35:11.408Z,1.299
2022-11-22T01:36:11.513Z,1.399
2022-11-22T01:37:11.594Z,1.200
2022-11-22T01:38:10.601Z,1.600
2022-11-22T01:39:10.549Z,1.5
2022-11-22T01:40:11.489Z,1.399
2022-11-22T01:41:11.340Z,1.5
2022-11-22T01:43:10.730Z,1.399
2022-11-22T01:44:10.624Z,1.5
2022-11-22T01:45:10.754Z,1.600
2022-11-22T01:46:10.867Z,1.5
2022-11-22T01:47:11.314Z,1.899
2022-11-22T01:48:11.244Z,1.5
2022-11-22T01:49:11.433Z,1.899
2022-11-22T01:50:11.527Z,2
2022-11-22T01:51:11.426Z,1.899
2022-11-22T01:52:11.227Z,2
2022-11-22T01:54:11.480Z,2.299
2022-11-22T01:55:11.105Z,2
2022-11-22T01:56:11.045Z,1.700
2022-11-22T01:57:10.792Z,1.799
2022-11-22T01:58:10.947Z,2
2022-11-22T02:00:11.732Z,2.200
2022-11-22T02:01:10.953Z,1.899
2022-11-22T02:02:11.126Z,2.099
2022-11-22T02:03:11.380Z,2.200
2022-11-22T02:05:11.540Z,2.400
2022-11-22T02:06:11.586Z,2.099
2022-11-22T02:07:11.487Z,2.299
2022-11-22T02:08:11.580Z,2
2022-11-22T02:09:11.799Z,2.400
2022-11-22T02:10:10.938Z,2.099
2022-11-22T02:11:11.097Z,2.400
2022-11-22T02:13:11.038Z,2.299
2022-11-22T02:14:11.144Z,2.099
2022-11-22T02:15:11.290Z,2.299
2022-11-22T02:16:11.081Z,2.099
2022-11-22T02:17:10.975Z,2
2022-11-22T02:18:11.105Z,2.299
2022-11-22T02:19:11.074Z,1.899
2022-11-22T02:20:11.141Z,2.200
2022-11-22T02:21:10.877Z,2
2022-11-22T02:22:11.421Z,2.200
2022-11-22T02:23:11.163Z,2.400
2022-11-22T02:25:10.840Z,2.299
2022-11-22T02:26:10.634Z,2.200
2022-11-22T02:27:11.583Z,2.099
2022-11-22T02:29:10.796Z,2.400
2022-11-22T02:30:11.258Z,2.700
2022-11-22T02:31:11.418Z,2.5
2022-11-22T02:33:11.463Z,2.099
2022-11-22T02:34:11.465Z,2.299
2022-11-22T02:35:11.743Z,2.599
2022-11-22T02:36:11.669Z,2.299
2022-11-22T02:37:11.509Z,2.400
2022-11-22T02:38:11.183Z,2.200
2022-11-22T02:39:11.197Z,1.899
2022-11-22T02:40:10.999Z,2.200
2022-11-22T02:41:10.952Z,2.5
2022-11-22T02:42:10.808Z,2.099
2022-11-22T02:43:11.468Z,2
2022-11-22T02:44:11.261Z,1.799
2022-11-22T02:45:11.113Z,2.200
2022-11-22T02:47:10.867Z,2.299
2022-11-22T02:48:11.611Z,2.099
2022-11-22T02:49:11.340Z,2.400
2022-11-22T02:51:11.580Z,1.899
2022-11-22T02:52:11.623Z,2.400
2022-11-22T02:53:11.570Z,2
2022-11-22T02:54:11.436Z,2.099
2022-11-22T02:55:11.611Z,1.700
2022-11-22T02:56:10.780Z,2.099
2022-11-22T02:57:10.925Z,1.799
2022-11-22T02:58:10.688Z,1.600
2022-11-22T02:59:10.910Z,1.799
2022-11-22T03:01:11.309Z,2.200
2022-11-22T03:02:11.565Z,1.700
2022-11-22T03:04:11.255Z,2
2022-11-22T03:05:11.446Z,1.899
2022-11-22T03:06:11.474Z,2.200
2022-11-22T03:07:11.534Z,1.700
2022-11-22T03:08:10.891Z,2
2022-11-22T03:09:10.975Z,1.600
2022-11-22T03:10:11.332Z,1.5
2022-11-22T03:12:11.135Z,1.600
2022-11-22T03:13:11.067Z,1.799
2022-11-22T03:14:11.049Z,1.899
2022-11-22T03:15:11.550Z,2
2022-11-22T03:16:11.212Z,1.600
2022-11-22T03:17:11.191Z,1.700
2022-11-22T03:18:11.114Z,1.799
2022-11-22T03:19:11.054Z,1.700
2022-11-22T03:20:11.048Z,2.099
2022-11-22T03:21:11.234Z,1.899
2022-11-22T03:22:11.644Z,2.200
2022-11-22T03:23:11.786Z,2.799
2022-11-22T03:24:11.380Z,1.899
2022-11-22T03:25:11.783Z,2.099
2022-11-22T03:26:10.950Z,1.899
2022-11-22T03:28:11.423Z,1.799
2022-11-22T03:29:11.521Z,2
2022-11-22T03:30:11.644Z,1.899
2022-11-22T03:32:11.781Z,2.099
2022-11-22T03:33:10.846Z,1.700
2022-11-22T03:34:10.633Z,1.799
2022-11-22T03:35:11.630Z,1.700
2022-11-22T03:36:10.927Z,1.600
2022-11-22T03:37:11.368Z,1.899
2022-11-22T03:38:10.990Z,1.600
2022-11-22T03:40:11.734Z,2
2022-11-22T03:43:10.869Z,1.600
2022-11-22T03:44:10.745Z,1.399
2022-11-22T03:45:12.127Z,1.799
2022-11-22T03:47:10.690Z,1.399
2022-11-22T03:48:10.711Z,1.700
2022-11-22T03:50:11.361Z,1.5
2022-11-22T03:51:11.453Z,1.799
2022-11-22T03:52:11.615Z,1.899
2022-11-22T03:53:11.369Z,1.700
2022-11-22T03:54:11.441Z,2.200
2022-11-22T03:56:11.349Z,2
2022-11-22T03:57:11.165Z,2.099
2022-11-22T03:58:11.079Z,2
2022-11-22T03:59:11.056Z,1.700
2022-11-22T04:00:11.794Z,2
2022-11-22T04:01:16.335Z,1.5
2022-11-22T04:02:11.559Z,1.799
2022-11-22T04:03:11.380Z,1.899
2022-11-22T04:05:11.892Z,2.099
2022-11-22T04:06:10.805Z,2
2022-11-22T04:07:11.206Z,2.200
2022-11-22T04:08:11.297Z,2.099
2022-11-22T04:09:11.326Z,2
2022-11-22T04:11:11.021Z,2.5
2022-11-22T04:12:11.498Z,2.400
2022-11-22T04:13:11.451Z,2
2022-11-22T04:15:11.127Z,1.899
2022-11-22T04:16:11.555Z,2.099
2022-11-22T04:17:11.819Z,2.299
2022-11-22T04:18:11.326Z,1.899
2022-11-22T04:19:11.328Z,2.299
2022-11-22T04:20:11.942Z,2.200
2022-11-22T04:21:11.152Z,2.400
2022-11-22T04:22:11.379Z,2.599
2022-11-22T04:23:11.174Z,2.099
2022-11-22T04:24:11.055Z,2.200
2022-11-22T04:25:11.484Z,2.400
2022-11-22T04:26:11.526Z,2.900
2022-11-22T04:27:11.537Z,2.5
2022-11-22T04:28:10.661Z,2.599
2022-11-22T04:29:10.911Z,2.5
2022-11-22T04:30:13.775Z,2.700
2022-11-22T04:32:11.268Z,2.400
2022-11-22T04:33:11.557Z,2.5
2022-11-22T04:34:10.675Z,2.700
2022-11-22T04:35:10.967Z,2.400
2022-11-22T04:37:10.892Z,2.799
2022-11-22T04:38:11.003Z,2
2022-11-22T04:39:11.168Z,2.599
2022-11-22T04:40:11.474Z,2.400
2022-11-22T04:42:11.166Z,2.299
2022-11-22T04:43:11.372Z,2.200
2022-11-22T04:44:11.494Z,2.299
2022-11-22T04:45:11.907Z,2
2022-11-22T04:46:11.222Z,2.400
2022-11-22T04:47:11.229Z,2.5
2022-11-22T04:48:11.742Z,2.200
2022-11-22T04:50:11.499Z,2.099
2022-11-22T04:51:11.359Z,3
2022-11-22T04:52:11.484Z,2.299
2022-11-22T04:53:11.782Z,2.400
2022-11-22T04:54:10.956Z,2.299
2022-11-22T04:55:11.335Z,1.899
2022-11-22T04:56:11.638Z,2.299
2022-11-22T04:57:11.713Z,2.099
2022-11-22T04:58:10.884Z,2.400
2022-11-22T04:59:11.159Z,2.299
2022-11-22T05:00:12.032Z,1.899
2022-11-22T05:01:11.657Z,2.400
2022-11-22T05:02:11.023Z,2.200
2022-11-22T05:03:11.893Z,2.299
2022-11-22T05:04:11.213Z,2.099
2022-11-22T05:05:11.204Z,1.700
2022-11-22T05:06:11.644Z,2
2022-11-22T05:07:11.772Z,1.700
2022-11-22T05:08:11.201Z,1.899
2022-11-22T05:09:11.363Z,1.799
2022-11-22T05:10:11.855Z,1.700
2022-11-22T05:11:10.901Z,2.099
2022-11-22T05:12:10.936Z,2.299
2022-11-22T05:14:11.117Z,2.400
2022-11-22T05:15:11.570Z,2
2022-11-22T05:16:10.926Z,2.099
2022-11-22T05:17:13.385Z,1.899
2022-11-22T05:18:10.982Z,2.099
2022-11-22T05:19:11.345Z,2.400
2022-11-22T05:20:11.631Z,1.899
2022-11-22T05:21:10.841Z,2.299
2022-11-22T05:22:10.923Z,1.899
2022-11-22T05:23:11.392Z,2.299
2022-11-22T05:24:11.785Z,1.799
2022-11-22T05:25:11.196Z,2.099
2022-11-22T05:26:10.819Z,2.200
2022-11-22T05:27:11.020Z,1.899
2022-11-22T05:29:11.558Z,2.400
2022-11-22T05:30:11.598Z,2.299
2022-11-22T05:31:11.406Z,2.099
2022-11-22T05:32:11.758Z,2.400
2022-11-22T05:33:11.270Z,2.5
2022-11-22T05:34:11.548Z,1.899
2022-11-22T05:35:11.963Z,2.5
2022-11-22T05:38:10.778Z,2.599
2022-11-22T05:39:11.074Z,2.400
2022-11-22T05:40:11.558Z,2.599
2022-11-22T05:41:11.175Z,2.700
2022-11-22T05:42:11.545Z,2.200
2022-11-22T05:43:10.992Z,2.099
2022-11-22T05:44:11.587Z,2.299
2022-11-22T05:45:10.881Z,2.200
2022-11-22T05:46:11.187Z,2.400
2022-11-22T05:47:11.405Z,2.200
2022-11-22T05:48:11.603Z,2.400
2022-11-22T05:49:10.833Z,2.099
2022-11-22T05:50:11.627Z,2.200
2022-11-22T05:52:10.922Z,2
2022-11-22T05:53:11.006Z,2.299
2022-11-22T05:54:11.468Z,2
2022-11-22T05:55:12.140Z,2.200
2022-11-22T05:56:11.746Z,2.400
2022-11-22T06:01:11.345Z,2.599
2022-11-22T06:02:11.903Z,2.200
2022-11-22T06:03:11.292Z,1.899
2022-11-22T06:04:11.390Z,2.299
2022-11-22T06:05:11.676Z,1.899
2022-11-22T06:06:10.939Z,2.400
2022-11-22T06:07:11.379Z,2.299
2022-11-22T06:08:10.936Z,2.200
2022-11-22T06:09:11.666Z,2.599
2022-11-22T06:10:11.376Z,2.5
2022-11-22T06:11:11.710Z,2.099
2022-11-22T06:13:11.333Z,2
2022-11-22T06:14:11.801Z,2.400
2022-11-22T06:16:10.995Z,2.200
2022-11-22T06:18:11.879Z,2.400
2022-11-22T06:19:11.161Z,2.200
2022-11-22T06:21:11.310Z,2.299
2022-11-22T06:23:11.413Z,2.099
2022-11-22T06:24:11.529Z,2
2022-11-22T06:25:11.724Z,2.299
2022-11-22T06:27:11.179Z,2.5
2022-11-22T06:28:11.349Z,2.400
2022-11-22T06:30:11.192Z,2.200
2022-11-22T06:32:11.268Z,1.899
2022-11-22T06:33:11.667Z,2.099
2022-11-22T06:34:11.010Z,2
2022-11-22T06:35:11.312Z,1.899
2022-11-22T06:36:11.745Z,1.799
2022-11-22T06:37:11.228Z,2
2022-11-22T06:38:11.605Z,1.899
2022-11-22T06:39:10.938Z,1.799
2022-11-22T06:41:11.883Z,2.200
2022-11-22T06:42:11.084Z,1.899
2022-11-22T06:43:11.559Z,1.799
2022-11-22T06:44:10.832Z,1.899
2022-11-22T06:45:10.865Z,1.700
2022-11-22T06:46:11.359Z,1.799
2022-11-22T06:47:11.613Z,1.899
2022-11-22T06:48:11.002Z,2
2022-11-22T06:49:11.347Z,1.700
2022-11-22T06:50:11.767Z,1.899
2022-11-22T06:51:10.892Z,2.200
2022-11-22T06:52:11.246Z,1.799
2022-11-22T06:53:32.372Z,1.700
2022-11-22T06:55:34.570Z,2.200
2022-11-22T06:56:11.638Z,1.600
2022-11-22T06:57:11.794Z,2.200
2022-11-22T06:58:11.089Z,2.299
2022-11-22T06:59:11.292Z,2
2022-11-22T07:00:12.184Z,2.200
2022-11-22T07:01:11.833Z,1.700
2022-11-22T07:02:11.515Z,2
2022-11-22T07:03:11.825Z,1.700
2022-11-22T07:04:11.236Z,2
2022-11-22T07:05:25.092Z,1.899
2022-11-22T07:08:14.012Z,1.799
2022-11-22T07:10:11.402Z,1.600
2022-11-22T07:11:11.923Z,1.799
2022-11-22T07:12:11.414Z,1.899
2022-11-22T07:14:11.003Z,2.200
2022-11-22T07:15:11.637Z,1.899
2022-11-22T07:16:11.446Z,2.200
2022-11-22T07:17:19.790Z,2.299
2022-11-22T07:21:13.264Z,2.200
2022-11-22T07:22:11.336Z,2
2022-11-22T07:24:11.083Z,2.099
2022-11-22T07:25:11.597Z,2
2022-11-22T07:26:12.102Z,1.899
2022-11-22T07:27:11.498Z,1.700
2022-11-22T07:29:11.319Z,1.899
2022-11-22T07:30:11.967Z,2.099
2022-11-22T07:31:11.595Z,1.799
2022-11-22T07:32:11.223Z,2.200
2022-11-22T07:33:11.600Z,2.099
2022-11-22T07:34:11.155Z,1.899
2022-11-22T07:35:12.053Z,1.799
2022-11-22T07:36:11.389Z,1.899
2022-11-22T07:37:11.556Z,2.099
2022-11-22T07:38:11.940Z,2
2022-11-22T07:39:11.539Z,1.700
2022-11-22T07:40:12.278Z,1.899
2022-11-22T07:41:11.741Z,2.099
2022-11-22T07:42:11.248Z,1.899
2022-11-22T07:43:11.780Z,2
2022-11-22T07:44:11.323Z,1.899
2022-11-22T07:45:12.145Z,2.099
2022-11-22T07:46:11.714Z,1.899
2022-11-22T07:48:11.163Z,1.799
2022-11-22T07:49:11.867Z,2
2022-11-22T07:50:11.587Z,1.899
2022-11-22T07:51:11.410Z,2.099
2022-11-22T07:52:12.171Z,1.799
2022-11-22T07:53:11.934Z,1.899
2022-11-22T07:56:11.269Z,2
2022-11-22T07:57:12.063Z,1.799
2022-11-22T07:58:11.489Z,2
2022-11-22T07:59:11.440Z,1.899
2022-11-22T08:00:12.364Z,1.600
2022-11-22T08:01:11.191Z,1.899
2022-11-22T08:02:13.807Z,2.200
2022-11-22T08:03:15.602Z,2.099
2022-11-22T08:04:11.346Z,2.200
2022-11-22T08:05:12.019Z,2
2022-11-22T08:06:11.711Z,2.099
2022-11-22T08:07:11.235Z,2.200
2022-11-22T08:08:11.710Z,2
2022-11-22T08:11:11.137Z,1.700
2022-11-22T08:12:11.845Z,1.899
2022-11-22T08:13:11.200Z,1.799
2022-11-22T08:14:11.969Z,2.299
2022-11-22T08:15:11.692Z,1.799
2022-11-22T08:16:11.110Z,1.700
2022-11-22T08:17:11.677Z,1.899
2022-11-22T08:19:11.865Z,2
2022-11-22T08:21:11.898Z,1.899
2022-11-22T08:25:11.657Z,1.700
2022-11-22T08:26:11.062Z,2.299
2022-11-22T08:27:11.766Z,1.799
2022-11-22T08:28:11.483Z,2
2022-11-22T08:30:11.539Z,1.899
2022-11-22T08:32:11.355Z,1.799
2022-11-22T08:33:11.914Z,2.400
2022-11-22T08:34:11.602Z,1.799
2022-11-22T08:37:11.673Z,1.899
2022-11-22T08:39:11.436Z,2.099
2022-11-22T08:40:12.041Z,2.200
2022-11-22T08:41:11.380Z,1.899
2022-11-22T08:43:11.073Z,1.5
2022-11-22T08:44:11.563Z,2.200
2022-11-22T08:45:11.157Z,1.799
2022-11-22T08:47:11.916Z,1.899
2022-11-22T08:48:11.029Z,1.799
2022-11-22T08:49:11.267Z,2
2022-11-22T08:51:11.055Z,1.799
2022-11-22T08:52:11.239Z,2.099
2022-11-22T08:53:11.593Z,1.700
2022-11-22T08:55:11.107Z,1.600
2022-11-22T08:56:11.584Z,1.899
2022-11-22T08:57:11.824Z,1.5
2022-11-22T08:58:11.045Z,1.700
2022-11-22T08:59:11.584Z,1.600
2022-11-22T09:00:11.505Z,1.700
2022-11-22T09:01:11.694Z,1.899
2022-11-22T09:02:11.124Z,1.799
2022-11-22T09:03:11.715Z,1.899
2022-11-22T09:04:11.197Z,1.799
2022-11-22T09:05:11.774Z,1.700
2022-11-22T09:08:26.105Z,1.600
2022-11-22T09:09:43.202Z,1.899
2022-11-22T09:10:12.128Z,2
2022-11-22T09:11:11.331Z,1.700
2022-11-22T09:13:11.689Z,1.600
2022-11-22T09:14:11.033Z,1.5
2022-11-22T09:15:12.071Z,1.600
2022-11-22T09:16:11.425Z,1.799
2022-11-22T09:17:16.239Z,2
2022-11-22T09:18:11.381Z,1.700
2022-11-22T09:19:11.992Z,2
2022-11-22T09:20:11.957Z,1.5
2022-11-22T09:21:11.141Z,1.899
2022-11-22T09:22:11.255Z,1.799
2022-11-22T09:23:12.218Z,1.399
2022-11-22T09:24:11.401Z,1.600
2022-11-22T09:26:11.863Z,1.399
2022-11-22T09:27:11.311Z,1.700
2022-11-22T09:28:11.590Z,1.600
2022-11-22T09:29:11.831Z,1.399
2022-11-22T09:30:11.613Z,1.5
2022-11-22T09:32:11.809Z,1.600
2022-11-22T09:33:11.482Z,1.5
2022-11-22T09:34:16.569Z,1.700
2022-11-22T09:35:11.529Z,1.299
2022-11-22T09:36:11.571Z,1.5
2022-11-22T09:38:11.462Z,1.399
2022-11-22T09:39:11.720Z,1.600
2022-11-22T09:40:10.799Z,1.700
2022-11-22T09:42:11.330Z,1.299
2022-11-22T09:43:11.813Z,1.700
2022-11-22T09:44:11.317Z,1.299
2022-11-22T09:47:11.784Z,1.399
2022-11-22T09:48:11.382Z,1.299
2022-11-22T09:49:11.579Z,1.200
2022-11-22T09:50:11.175Z,1.5
2022-11-22T09:51:11.774Z,1.200
2022-11-22T09:52:11.298Z,1.600
2022-11-22T09:53:11.939Z,1.5
2022-11-22T09:54:11.413Z,1.700
2022-11-22T09:55:12.144Z,1.600
2022-11-22T09:57:11.502Z,1.200
2022-11-22T09:58:11.761Z,1.100
2022-11-22T09:59:11.089Z,1.399
2022-11-22T10:00:26.412Z,1.600
2022-11-22T10:01:11.941Z,1.5
2022-11-22T10:02:39.245Z,1.299
2022-11-22T10:03:10.761Z,1.100
2022-11-22T10:04:11.284Z,1.200
2022-11-22T10:05:12.024Z,1.100
2022-11-22T10:06:11.190Z,1.299
2022-11-22T10:07:11.645Z,1.5
2022-11-22T10:08:11.709Z,1.600
2022-11-22T10:09:10.984Z,1.5
2022-11-22T10:10:11.408Z,1.200
2022-11-22T10:11:11.626Z,1.100
2022-11-22T10:13:11.269Z,1.299
2022-11-22T10:14:11.581Z,1.200
2022-11-22T10:15:11.977Z,1
2022-11-22T10:18:11.841Z,0.800
2022-11-22T10:19:10.904Z,0.899
2022-11-22T10:20:11.517Z,1.100
2022-11-22T10:21:10.816Z,1.200
2022-11-22T10:22:11.246Z,1
2022-11-22T10:24:11.663Z,1.100
2022-11-22T10:25:10.978Z,1
2022-11-22T10:26:11.449Z,0.899
2022-11-22T10:27:10.746Z,1.100
2022-11-22T10:28:11.060Z,0.800
2022-11-22T10:30:12.349Z,1.100
2022-11-22T10:31:12.140Z,1
2022-11-22T10:33:11.564Z,0.899
2022-11-22T10:35:11.162Z,1.100
2022-11-22T10:36:11.384Z,0.800
2022-11-22T10:37:11.858Z,1.299
2022-11-22T10:38:11.288Z,1
2022-11-22T10:39:11.295Z,0.800
2022-11-22T10:40:11.815Z,0.899
2022-11-22T10:41:11.456Z,1
2022-11-22T10:42:11.122Z,0.899
2022-11-22T10:43:11.519Z,1
2022-11-22T10:44:11.249Z,0.899
2022-11-22T10:46:11.400Z,1.100
2022-11-22T10:47:11.022Z,0.899
2022-11-22T10:49:11.588Z,1
2022-11-22T10:50:11.255Z,0.899
2022-11-22T10:51:11.456Z,1
2022-11-22T10:52:10.982Z,0.800
2022-11-22T10:54:10.882Z,0.899
2022-11-22T10:55:11.746Z,0.800
2022-11-22T10:57:11.141Z,1
2022-11-22T10:58:11.615Z,1.100
2022-11-22T10:59:10.910Z,0.899
2022-11-22T11:00:12.070Z,1
2022-11-22T11:01:12.046Z,1.100
2022-11-22T11:02:11.553Z,1
2022-11-22T11:03:11.815Z,0.699
2022-11-22T11:04:11.506Z,1
2022-11-22T11:05:11.224Z,1.100
2022-11-22T11:06:37.918Z,0.899
2022-11-22T11:08:39.367Z,1
2022-11-22T11:10:15.783Z,0.699
2022-11-22T11:11:11.624Z,0.800
2022-11-22T11:13:11.925Z,1
2022-11-22T11:14:11.784Z,0.699
2022-11-22T11:15:11.771Z,0.899
2022-11-22T11:16:11.446Z,1
2022-11-22T11:17:11.896Z,0.800
2022-11-22T11:18:11.485Z,0.899
2022-11-22T11:19:11.902Z,1.200
2022-11-22T11:20:11.815Z,1
2022-11-22T11:21:11.402Z,0.800
2022-11-22T11:24:11.332Z,0.899
2022-11-22T11:26:11.669Z,0.800
2022-11-22T11:27:11.371Z,1
2022-11-22T11:28:10.954Z,0.899
2022-11-22T11:29:11.782Z,0.800
2022-11-22T11:31:12.094Z,0.699
2022-11-22T11:32:11.637Z,1.100
2022-11-22T11:33:11.371Z,0.899
2022-11-22T11:34:12.059Z,0.600
2022-11-22T11:35:11.546Z,0.899
2022-11-22T11:36:11.308Z,0.800
2022-11-22T11:37:11.596Z,0.899
2022-11-22T11:38:11.929Z,0.800
2022-11-22T11:40:09.913Z,0.699
2022-11-22T11:41:11.417Z,0.800
2022-11-22T11:42:11.665Z,0.899
2022-11-22T11:43:11.819Z,0.5
2022-11-22T11:44:11.291Z,0.800
2022-11-22T11:47:11.618Z,0.699
2022-11-22T11:48:11.093Z,0.899
2022-11-22T11:49:11.344Z,0.699
2022-11-22T11:50:12.080Z,0.800
2022-11-22T11:51:11.325Z,0.600
2022-11-22T11:53:12.209Z,0.699
2022-11-22T11:54:11.153Z,0.800
2022-11-22T11:55:11.290Z,0.699
2022-11-22T11:56:11.886Z,0.600
2022-11-22T11:59:16.120Z,0.899
2022-11-22T12:00:12.245Z,0.5
2022-11-22T12:01:15.923Z,0.699
2022-11-22T12:04:11.133Z,0.5
2022-11-22T12:05:16.993Z,0.600
2022-11-22T12:06:11.402Z,0.5
2022-11-22T12:10:10.981Z,0.400
2022-11-22T12:11:10.912Z,0.300
2022-11-22T12:12:11.305Z,0.600
2022-11-22T12:13:25.493Z,0.400
2022-11-22T12:14:37.599Z,0.5
2022-11-22T12:15:12.360Z,0.699
2022-11-22T12:16:11.805Z,0.800
2022-11-22T12:17:11.767Z,0.5
2022-11-22T12:18:11.073Z,0.600
2022-11-22T12:19:11.255Z,0.5
2022-11-22T12:20:11.422Z,0.300
2022-11-22T12:21:25.707Z,0.400
2022-11-22T12:22:19.711Z,0.300
2022-11-22T12:24:42.782Z,0.400
2022-11-22T12:25:31.619Z,0.200
2022-11-22T12:27:11.471Z,0.300
2022-11-22T12:30:12.298Z,0.400
2022-11-22T12:31:15.018Z,0.200
2022-11-22T12:32:12.021Z,0.5
2022-11-22T12:33:30.612Z,0.200
2022-11-22T12:35:11.326Z,0.5
2022-11-22T12:36:11.636Z,0.400
2022-11-22T12:37:11.042Z,0.200
2022-11-22T12:38:11.329Z,0.400
2022-11-22T12:39:11.812Z,0.300
2022-11-22T12:40:10.929Z,0.400
2022-11-22T12:41:11.329Z,0.300
2022-11-22T12:43:11.422Z,0.200
2022-11-22T12:44:12.056Z,0.300
2022-11-22T12:45:11.320Z,0.400
2022-11-22T12:46:11.443Z,0.300
2022-11-22T12:47:11.888Z,0.200
2022-11-22T12:48:11.243Z,0.400
2022-11-22T12:49:11.180Z,0.200
2022-11-22T12:50:11.862Z,0.300
2022-11-22T12:52:11.871Z,0.200
2022-11-22T12:54:11.788Z,0.300
2022-11-22T12:55:11.164Z,0.200
2022-11-22T12:58:11.088Z,0.400
2022-11-22T13:00:12.637Z,0.300
2022-11-22T13:02:12.203Z,0.400
2022-11-22T13:03:11.855Z,0.300
2022-11-22T13:06:11.451Z,0.200
2022-11-22T13:07:12.061Z,0.300
2022-11-22T13:08:12.323Z,0.200
2022-11-22T13:10:12.355Z,0.300
2022-11-22T13:11:11.715Z,0.100
2022-11-22T13:12:11.657Z,0.300
2022-11-22T13:14:14.035Z,0.200
2022-11-22T13:15:12.412Z,0.300
2022-11-22T13:16:11.534Z,0.899
2022-11-22T13:17:11.273Z,0.300
2022-11-22T13:18:12.061Z,0.5
2022-11-22T13:19:11.821Z,0.300
2022-11-22T13:20:11.639Z,0.200
2022-11-22T13:21:11.186Z,0.300
2022-11-22T13:24:11.116Z,0.400
2022-11-22T13:25:11.245Z,0.300
2022-11-22T13:26:14.892Z,0.5
2022-11-22T13:27:11.806Z,0.200
2022-11-22T13:28:11.109Z,0.400
2022-11-22T13:29:11.417Z,0.300
2022-11-22T13:31:11.265Z,0.200
2022-11-22T13:34:12.238Z,0.300
2022-11-22T13:35:12.091Z,0.200
2022-11-22T13:36:11.763Z,0.100
2022-11-22T13:37:11.072Z,0.300
2022-11-22T13:39:11.566Z,0.200
2022-11-22T13:40:11.622Z,0.100
2022-11-22T13:42:11.163Z,0.200
2022-11-22T13:44:12.158Z,0.400
2022-11-22T13:45:12.155Z,0.300
2022-11-22T13:46:11.798Z,0.200
2022-11-22T13:47:11.161Z,0.300
2022-11-22T13:48:11.911Z,0.200
2022-11-22T13:53:11.746Z,0.300
2022-11-22T13:54:12.264Z,0.200
2022-11-22T13:55:15.155Z,0.300
2022-11-22T13:56:12.272Z,0.400
2022-11-22T13:58:11.944Z,0.200
2022-11-22T13:59:11.336Z,0.300
2022-11-22T14:00:12.858Z,0.200
2022-11-22T14:01:11.787Z,0.100
2022-11-22T14:02:11.939Z,0.200
2022-11-22T14:03:11.351Z,0.100
2022-11-22T14:04:11.104Z,0.300
2022-11-22T14:05:11.943Z,0.200
2022-11-22T14:06:11.483Z,0.100
2022-11-22T14:08:11.710Z,0.200
2022-11-22T14:09:11.714Z,0.300
2022-11-22T14:10:11.535Z,0.100
2022-11-22T14:11:11.859Z,0.200
2022-11-22T14:12:11.331Z,0.300
2022-11-22T14:13:12.004Z,0.200
2022-11-22T14:15:11.697Z,0.100
2022-11-22T14:16:11.200Z,0.200
2022-11-22T14:17:11.651Z,0.100
2022-11-22T14:19:12.506Z,0.200
2022-11-22T14:20:16.956Z,0.100
2022-11-22T14:22:11.501Z,0.200
2022-11-22T14:23:11.049Z,0.100
2022-11-22T14:25:11.936Z,0.200
2022-11-22T14:26:11.687Z,0.100
2022-11-22T14:27:11.340Z,0.300
2022-11-22T14:28:11.031Z,0.100
2022-11-22T14:30:11.811Z,0.200
2022-11-22T14:33:11.433Z,0.300
2022-11-22T14:34:11.595Z,0.5
2022-11-22T14:35:12.377Z,0.300
2022-11-22T14:37:11.992Z,0.200
2022-11-22T14:39:11.611Z,0.300
2022-11-22T14:40:11.303Z,0.200
2022-11-22T14:43:11.819Z,0.300
2022-11-22T14:44:11.597Z,0.100
2022-11-22T14:45:11.342Z,0.200
2022-11-22T14:47:11.631Z,0.100
2022-11-22T14:48:11.223Z,0.400
2022-11-22T14:49:11.613Z,0.200
2022-11-22T14:51:11.544Z,0.100
2022-11-22T14:52:10.905Z,0.200
2022-11-22T14:53:11.481Z,0.100
2022-11-22T14:54:30.935Z,0.200
2022-11-22T14:55:11.424Z,0.300
2022-11-22T14:56:10.988Z,0.200
2022-11-22T14:59:11.263Z,0.300
2022-11-22T15:09:11.525Z,0.400
2022-11-22T15:09:16.795Z,0.200
2022-11-22T15:09:19.646Z,0.300
2022-11-22T15:11:11.024Z,0.200
2022-11-22T15:12:11.389Z,0.300
2022-11-22T15:13:11.475Z,0.400
2022-11-22T15:14:11.659Z,0.300
2022-11-22T15:58:41.769Z,0.200
2022-11-22T16:00:12.689Z,0.600
2022-11-22T16:01:18.483Z,0.400
2022-11-22T16:02:11.380Z,0.200
2022-11-22T16:03:11.499Z,0.400
2022-11-22T16:04:12.186Z,0.5
2022-11-22T16:06:06.460Z,0.400
2022-11-22T16:06:12.337Z,0.200
2022-11-22T16:07:11.789Z,0.699
2022-11-22T16:08:11.313Z,1.5
2022-11-22T16:10:11.799Z,1.100
2022-11-22T16:11:11.304Z,1
2022-11-22T16:12:11.078Z,0.899
2022-11-22T16:13:11.502Z,0.699
2022-11-22T16:14:11.317Z,0.800
2022-11-22T16:15:12.300Z,0.5
2022-11-22T16:16:11.757Z,0.699
2022-11-22T16:17:12.096Z,1
2022-11-22T16:18:11.536Z,0.800
2022-11-22T16:19:11.650Z,1
2022-11-22T16:21:11.378Z,0.899
2022-11-22T16:22:11.142Z,1.200
2022-11-22T16:23:10.187Z,1.399
2022-11-22T16:24:11.189Z,1.299
2022-11-22T16:26:11.358Z,1.399
2022-11-22T16:27:11.753Z,1.600
2022-11-22T16:28:11.287Z,1.700
2022-11-22T16:30:12.093Z,2
2022-11-22T16:31:11.733Z,1.700
2022-11-22T16:32:11.389Z,1.600
2022-11-22T16:33:11.654Z,1.799
2022-11-22T16:34:11.244Z,1.700
2022-11-22T16:35:28.482Z,1.899
2022-11-22T16:36:11.928Z,1.600
2022-11-22T16:38:11.405Z,2
2022-11-22T16:39:11.562Z,1.799
2022-11-22T16:40:11.580Z,1.5
2022-11-22T16:41:11.195Z,1.399
2022-11-22T16:42:11.730Z,1.100
2022-11-22T16:43:11.354Z,0.899
2022-11-22T16:44:11.979Z,0.800
2022-11-22T16:45:16.495Z,0.899
2022-11-22T16:46:11.125Z,0.800
2022-11-22T16:47:16.982Z,1.100
2022-11-22T16:48:30.791Z,0.699
2022-11-22T16:49:11.568Z,0.800
2022-11-22T16:51:16.961Z,0.699
2022-11-22T16:52:12.077Z,0.600
2022-11-22T16:53:16.902Z,0.5
2022-11-22T16:54:11.477Z,0.800
2022-11-22T16:55:11.875Z,0.899
2022-11-22T16:57:11.321Z,0.699
2022-11-22T16:58:12.076Z,0.800
2022-11-22T16:59:12.772Z,0.699
2022-11-22T17:00:12.096Z,0.800
2022-11-22T17:01:19.962Z,0.699
2022-11-22T17:02:11.091Z,0.800
2022-11-22T17:03:11.922Z,0.600
2022-11-22T17:04:11.421Z,0.5
2022-11-22T17:05:12.351Z,0.600
2022-11-22T17:06:11.888Z,0.800
2022-11-22T17:07:12.189Z,0.5
2022-11-22T17:08:11.094Z,0.600
2022-11-22T17:09:11.744Z,0.400
2022-11-22T17:10:11.303Z,0.5
2022-11-22T17:11:25.317Z,0.600
2022-11-22T17:12:11.859Z,0.699
2022-11-22T17:15:11.336Z,0.600
2022-11-22T17:18:11.103Z,0.5
2022-11-22T17:19:52.134Z,0.800
2022-11-22T17:20:11.676Z,0.5
2022-11-22T17:21:11.008Z,0.800
2022-11-22T17:22:11.813Z,0.699
2022-11-22T17:23:11.265Z,0.899
2022-11-22T17:24:11.987Z,0.699